Nearby METAR Reports

 

EGMC - Southend-On-Sea, United Kingdom
Distance from station: NE 10km
Updated: 24/09/2020 14:20
Few Clouds
Few Clouds
 Wind from SW
Wind: SW 16 mph , 26 km/h
Temperature: 16°C
Dew Point: 4°C
Humidity: 45%
Barometer: 995 hPa
Clouds: Few Clouds
Visibility: 6 miles , 10 km
Cloud details: Few Clouds 1311 m
2020/09/24 13:20 EGMC 241320Z 22014KT 9999 FEW043 16/04 Q0995
EGLC - London City Airp, United Kingdom
Distance from station: W 37km
Updated: 24/09/2020 14:20
Thunderstorm
Thunderstorm
 Wind from WSW
Wind: WSW 15 mph , 24 km/h, Gust: 29 mph , 46 km/h
Temperature: 15°C
Dew Point: 7°C
Humidity: 59%
Barometer: 995 hPa
Clouds: Thunderstorm
Visibility: 6 miles , 10 km
Cloud details: Few Clouds 1067 m
Mostly cloudy 1402 m
2020/09/24 13:20 EGLC 241320Z AUTO 25013G25KT 9999 FEW035/// BKN046/// //////CB 15/07 Q0995
EGKB - Biggin Hill, United Kingdom
Distance from station: WSW 45km
Updated: 24/09/2020 14:20
Nearby showers, Partly cloudy
Nearby showers, Partly cloudy
 Wind from SW
Wind: SW 17 mph , 28 km/h
Temperature: 13°C
Dew Point: 5°C
Humidity: 59%
Barometer: 996 hPa
Summary: Nearby Showers
Clouds: Partly cloudy
Visibility: 6 miles , 10 km
Cloud details: Partly cloudy 1219 m
2020/09/24 13:20 EGKB 241320Z 22015KT 9999 VCSH SCT040TCU 13/05 Q0996
 
EGSS - Stansted Airport, United Kingdom
Distance from station: NNW 48km
Updated: 24/09/2020 14:20
Thunderstorm
Thunderstorm
 Wind from SW
Wind: SW 14 mph , 22 km/h
Temperature: 15°C
Dew Point: 5°C
Humidity: 51%
Barometer: 995 hPa
Clouds: Thunderstorm
Visibility: 6 miles , 10 km
Cloud details: Partly cloudy 1494 m
2020/09/24 13:20 EGSS 241320Z AUTO 22012KT 9999 SCT049/// //////CB 15/05 Q0995
EGKK - London/Gatwick A, United Kingdom
Distance from station: SW 67km
Updated: 24/09/2020 14:20
Few Clouds
Few Clouds
 Wind from SSW
Wind: SSW 8 mph , 13 km/h
Temperature: 11°C
Dew Point: 8°C
Humidity: 82%
Barometer: 996 hPa
Clouds: Few Clouds
Visibility: 6 miles , 10 km
Cloud details: Few Clouds 610 m
2020/09/24 13:20 EGKK 241320Z 20007KT 170V230 9999 FEW020 11/08 Q0996
EGMD - Lydd Airport, United Kingdom
Distance from station: SSE 67km
Updated: 24/09/2020 14:20
Few Clouds
Few Clouds
 Wind from WSW
Wind: WSW 14 mph , 22 km/h
Temperature: 16°C
Dew Point: 11°C
Humidity: 72%
Barometer: 997 hPa
Clouds: Few Clouds
Visibility: 6 miles , 10 km
Cloud details: Few Clouds 1036 m
2020/09/24 13:20 EGMD 241320Z AUTO 24012KT 210V270 9999 FEW034/// 16/11 Q0997
 
EGWU - Northolt Raf, United Kingdom
Distance from station: W 69km
Updated: 24/09/2020 14:10
Mostly cloudy
Mostly cloudy
 Wind from SSW
Wind: SSW 8 mph , 13 km/h
Temperature: 11°C
Dew Point: 9°C
Humidity: 88%
Barometer: 996 hPa
Clouds: Mostly cloudy
Visibility: 6 miles , 10 km
Cloud details: Mostly cloudy 1280 m
2020/09/24 13:10 EGWU 241310Z 20007KT 9999 BKN042CB 11/09 Q0996 NOSIG RMK BLU BLU
EGLL - London/Heathrow, United Kingdom
Distance from station: W 72km
Updated: 24/09/2020 14:20
Thunderstorm
Thunderstorm
 Wind from SSW
Wind: SSW 8 mph , 13 km/h
Temperature: 11°C
Dew Point: 9°C
Humidity: 88%
Barometer: 996 hPa
Clouds: Thunderstorm
Visibility: 6 miles , 10 km
Cloud details: Few Clouds 1128 m
2020/09/24 13:20 EGLL 241320Z AUTO 21007KT 190V250 9999 FEW037/// //////TCU 11/09 Q0996 RETSRA TEMPO SHRA
EGUW - Wattisham Raf, United Kingdom
Distance from station: NNE 72km
Updated: 24/09/2020 14:20
Clear
Clear
 Wind from SW
Wind: SW 13 mph , 20 km/h
Temperature: 15°C
Dew Point: 6°C
Humidity: 55%
Barometer: 995 hPa
Summary: Clear
Visibility: greater than 7 miles , 10 km
2020/09/24 13:20 EGUW 241320Z 23011KT CAVOK 15/06 Q0995 NOSIG RMK BLU BLU
 
EGGW - Luton Airport, United Kingdom
Distance from station: WNW 76km
Updated: 24/09/2020 14:20
Thunderstorm
Thunderstorm
 Wind from SW
Wind: SW 12 mph , 19 km/h
Temperature: 13°C
Dew Point: 6°C
Humidity: 63%
Barometer: 995 hPa
Clouds: Thunderstorm
Visibility: 6 miles , 10 km
Cloud details: Few Clouds 1494 m
2020/09/24 13:20 EGGW 241320Z AUTO 22010KT 9999 FEW049/// //////CB 13/06 Q0995
EGSC - Cambridge, United Kingdom
Distance from station: NNW 81km
Updated: 24/09/2020 14:20
Partly cloudy
Partly cloudy
 Wind from SW
Wind: SW 13 mph , 20 km/h
Temperature: 15°C
Dew Point: 5°C
Humidity: 51%
Barometer: 995 hPa
Clouds: Partly cloudy
Visibility: 6 miles , 10 km
Cloud details: Partly cloudy 1372 m
2020/09/24 13:20 EGSC 241320Z 22011KT 9999 SCT045 15/05 Q0995